sensor_id;sensor_type;location;lat;lon;timestamp;pressure;altitude;pressure_sealevel;temperature;humidity
43450;BME280;29041;42.266;23.110;2024-01-11T00:01:45;96774.81;;;-4.44;100.00
43450;BME280;29041;42.266;23.110;2024-01-11T00:04:32;96767.97;;;-4.46;100.00
43450;BME280;29041;42.266;23.110;2024-01-11T00:07:19;96764.53;;;-4.33;100.00
43450;BME280;29041;42.266;23.110;2024-01-11T00:10:07;96775.41;;;-4.42;100.00
43450;BME280;29041;42.266;23.110;2024-01-11T00:12:54;96766.16;;;-4.52;100.00
43450;BME280;29041;42.266;23.110;2024-01-11T00:15:43;96767.56;;;-4.36;100.00
43450;BME280;29041;42.266;23.110;2024-01-11T00:18:30;96766.53;;;-4.62;100.00
43450;BME280;29041;42.266;23.110;2024-01-11T00:21:17;96772.59;;;-4.54;100.00
43450;BME280;29041;42.266;23.110;2024-01-11T00:24:04;96765.31;;;-4.52;100.00
43450;BME280;29041;42.266;23.110;2024-01-11T00:26:51;96773.19;;;-4.66;100.00
43450;BME280;29041;42.266;23.110;2024-01-11T00:29:39;96765.53;;;-4.54;100.00
43450;BME280;29041;42.266;23.110;2024-01-11T00:32:27;96760.31;;;-4.47;100.00
43450;BME280;29041;42.266;23.110;2024-01-11T00:35:14;96764.13;;;-4.50;100.00
43450;BME280;29041;42.266;23.110;2024-01-11T00:38:01;96761.91;;;-4.46;100.00
43450;BME280;29041;42.266;23.110;2024-01-11T00:40:48;96760.69;;;-4.50;100.00
43450;BME280;29041;42.266;23.110;2024-01-11T00:43:36;96759.84;;;-3.90;100.00
43450;BME280;29041;42.266;23.110;2024-01-11T00:46:23;96753.63;;;-4.50;100.00
43450;BME280;29041;42.266;23.110;2024-01-11T00:49:11;96759.91;;;-4.51;100.00
43450;BME280;29041;42.266;23.110;2024-01-11T00:51:58;96758.06;;;-4.64;100.00
43450;BME280;29041;42.266;23.110;2024-01-11T00:54:45;96757.47;;;-4.25;100.00
43450;BME280;29041;42.266;23.110;2024-01-11T00:57:33;96757.78;;;-3.68;100.00
43450;BME280;29041;42.266;23.110;2024-01-11T01:00:20;96750.94;;;-3.17;100.00
43450;BME280;29041;42.266;23.110;2024-01-11T01:03:07;96759.44;;;-3.22;97.90
43450;BME280;29041;42.266;23.110;2024-01-11T01:05:55;96754.34;;;-3.75;100.00
43450;BME280;29041;42.266;23.110;2024-01-11T01:08:42;96759.59;;;-3.75;100.00
43450;BME280;29041;42.266;23.110;2024-01-11T01:11:30;96752.81;;;-4.17;100.00
43450;BME280;29041;42.266;23.110;2024-01-11T01:14:17;96755.03;;;-4.60;100.00
43450;BME280;29041;42.266;23.110;2024-01-11T01:17:04;96754.25;;;-4.07;100.00
43450;BME280;29041;42.266;23.110;2024-01-11T01:19:51;96747.81;;;-3.39;100.00
43450;BME280;29041;42.266;23.110;2024-01-11T01:22:39;96751.41;;;-4.12;100.00
43450;BME280;29041;42.266;23.110;2024-01-11T01:25:27;96761.13;;;-4.40;100.00
43450;BME280;29041;42.266;23.110;2024-01-11T01:28:14;96756.66;;;-4.59;100.00
43450;BME280;29041;42.266;23.110;2024-01-11T01:31:01;96750.00;;;-4.62;100.00
43450;BME280;29041;42.266;23.110;2024-01-11T01:33:48;96754.44;;;-4.69;100.00
43450;BME280;29041;42.266;23.110;2024-01-11T01:36:36;96749.41;;;-4.51;100.00
43450;BME280;29041;42.266;23.110;2024-01-11T01:39:24;96749.41;;;-4.31;100.00
43450;BME280;29041;42.266;23.110;2024-01-11T01:42:11;96754.25;;;-4.48;100.00
43450;BME280;29041;42.266;23.110;2024-01-11T01:44:58;96743.16;;;-4.36;100.00
43450;BME280;29041;42.266;23.110;2024-01-11T01:47:45;96736.50;;;-4.66;100.00
43450;BME280;29041;42.266;23.110;2024-01-11T01:50:33;96730.47;;;-4.66;100.00
43450;BME280;29041;42.266;23.110;2024-01-11T01:53:21;96726.81;;;-4.79;100.00
43450;BME280;29041;42.266;23.110;2024-01-11T01:56:10;96730.88;;;-4.63;100.00
43450;BME280;29041;42.266;23.110;2024-01-11T01:59:00;96719.13;;;-4.13;100.00
43450;BME280;29041;42.266;23.110;2024-01-11T02:01:48;96708.81;;;-4.08;100.00
43450;BME280;29041;42.266;23.110;2024-01-11T02:04:35;96718.13;;;-4.39;100.00
43450;BME280;29041;42.266;23.110;2024-01-11T02:07:22;96721.56;;;-4.32;100.00
43450;BME280;29041;42.266;23.110;2024-01-11T02:10:10;96728.84;;;-4.47;100.00
43450;BME280;29041;42.266;23.110;2024-01-11T02:12:59;96729.44;;;-4.38;99.04
43450;BME280;29041;42.266;23.110;2024-01-11T02:15:46;96714.72;;;-4.73;100.00
43450;BME280;29041;42.266;23.110;2024-01-11T02:18:33;96711.50;;;-4.55;99.87
43450;BME280;29041;42.266;23.110;2024-01-11T02:21:21;96711.91;;;-4.58;100.00
43450;BME280;29041;42.266;23.110;2024-01-11T02:24:11;96707.88;;;-4.74;100.00
43450;BME280;29041;42.266;23.110;2024-01-11T02:26:58;96702.03;;;-4.69;100.00
43450;BME280;29041;42.266;23.110;2024-01-11T02:29:46;96687.53;;;-4.72;100.00
43450;BME280;29041;42.266;23.110;2024-01-11T02:32:33;96706.03;;;-4.13;99.13
43450;BME280;29041;42.266;23.110;2024-01-11T02:35:21;96699.28;;;-3.89;96.33
43450;BME280;29041;42.266;23.110;2024-01-11T02:38:08;96704.19;;;-3.99;95.96
43450;BME280;29041;42.266;23.110;2024-01-11T02:40:57;96700.34;;;-4.03;98.07
43450;BME280;29041;42.266;23.110;2024-01-11T02:43:46;96697.56;;;-4.28;100.00
43450;BME280;29041;42.266;23.110;2024-01-11T02:46:34;96708.47;;;-4.72;100.00
43450;BME280;29041;42.266;23.110;2024-01-11T02:49:21;96707.25;;;-4.96;100.00
43450;BME280;29041;42.266;23.110;2024-01-11T02:52:08;96701.84;;;-4.74;100.00
43450;BME280;29041;42.266;23.110;2024-01-11T02:54:55;96694.56;;;-4.79;100.00
43450;BME280;29041;42.266;23.110;2024-01-11T02:57:44;96696.38;;;-4.73;100.00
43450;BME280;29041;42.266;23.110;2024-01-11T03:00:31;96693.78;;;-4.66;100.00
43450;BME280;29041;42.266;23.110;2024-01-11T03:03:18;96694.78;;;-4.81;100.00
43450;BME280;29041;42.266;23.110;2024-01-11T03:06:06;96687.31;;;-4.43;100.00
43450;BME280;29041;42.266;23.110;2024-01-11T03:08:53;96688.31;;;-4.65;100.00
43450;BME280;29041;42.266;23.110;2024-01-11T03:11:40;96697.56;;;-5.02;100.00
43450;BME280;29041;42.266;23.110;2024-01-11T03:14:29;96693.72;;;-5.06;100.00
43450;BME280;29041;42.266;23.110;2024-01-11T03:17:17;96685.25;;;-5.08;100.00
43450;BME280;29041;42.266;23.110;2024-01-11T03:20:05;96701.41;;;-4.98;100.00
43450;BME280;29041;42.266;23.110;2024-01-11T03:22:53;96684.50;;;-4.89;100.00
43450;BME280;29041;42.266;23.110;2024-01-11T03:25:40;96697.00;;;-4.71;100.00
43450;BME280;29041;42.266;23.110;2024-01-11T03:28:27;96694.53;;;-4.39;100.00
43450;BME280;29041;42.266;23.110;2024-01-11T03:31:16;96693.72;;;-5.13;100.00
43450;BME280;29041;42.266;23.110;2024-01-11T03:34:03;96689.69;;;-5.09;100.00
43450;BME280;29041;42.266;23.110;2024-01-11T03:36:50;96679.22;;;-5.02;100.00
43450;BME280;29041;42.266;23.110;2024-01-11T03:39:37;96679.84;;;-4.80;100.00
43450;BME280;29041;42.266;23.110;2024-01-11T03:42:24;96667.16;;;-4.90;100.00
43450;BME280;29041;42.266;23.110;2024-01-11T03:45:11;96673.00;;;-5.08;100.00
43450;BME280;29041;42.266;23.110;2024-01-11T03:48:00;96670.19;;;-5.00;100.00
43450;BME280;29041;42.266;23.110;2024-01-11T03:50:47;96666.53;;;-5.05;100.00
43450;BME280;29041;42.266;23.110;2024-01-11T03:53:34;96673.97;;;-5.22;100.00
43450;BME280;29041;42.266;23.110;2024-01-11T03:56:22;96660.50;;;-5.13;100.00
43450;BME280;29041;42.266;23.110;2024-01-11T03:59:10;96652.59;;;-5.33;100.00
43450;BME280;29041;42.266;23.110;2024-01-11T04:01:57;96664.25;;;-5.42;100.00
43450;BME280;29041;42.266;23.110;2024-01-11T04:04:46;96662.06;;;-5.32;100.00
43450;BME280;29041;42.266;23.110;2024-01-11T04:07:33;96666.88;;;-5.42;100.00
43450;BME280;29041;42.266;23.110;2024-01-11T04:10:20;96667.69;;;-5.35;100.00
43450;BME280;29041;42.266;23.110;2024-01-11T04:13:07;96659.47;;;-5.25;100.00
43450;BME280;29041;42.266;23.110;2024-01-11T04:15:55;96654.78;;;-5.50;100.00
43450;BME280;29041;42.266;23.110;2024-01-11T04:18:42;96650.50;;;-5.64;100.00
43450;BME280;29041;42.266;23.110;2024-01-11T04:21:31;96648.94;;;-5.59;100.00
43450;BME280;29041;42.266;23.110;2024-01-11T04:24:18;96645.28;;;-5.58;100.00
43450;BME280;29041;42.266;23.110;2024-01-11T04:27:05;96649.34;;;-5.48;100.00
43450;BME280;29041;42.266;23.110;2024-01-11T04:29:52;96655.38;;;-5.54;100.00
43450;BME280;29041;42.266;23.110;2024-01-11T04:32:39;96650.19;;;-5.28;100.00
43450;BME280;29041;42.266;23.110;2024-01-11T04:35:26;96647.19;;;-4.78;100.00
43450;BME280;29041;42.266;23.110;2024-01-11T04:38:14;96649.41;;;-5.08;100.00
43450;BME280;29041;42.266;23.110;2024-01-11T04:41:02;96642.78;;;-4.97;98.42
43450;BME280;29041;42.266;23.110;2024-01-11T04:43:49;96663.06;;;-5.33;100.00
43450;BME280;29041;42.266;23.110;2024-01-11T04:46:36;96642.09;;;-5.39;100.00
43450;BME280;29041;42.266;23.110;2024-01-11T04:49:23;96656.50;;;-5.77;100.00
43450;BME280;29041;42.266;23.110;2024-01-11T04:52:10;96657.22;;;-6.03;100.00
43450;BME280;29041;42.266;23.110;2024-01-11T04:54:59;96645.94;;;-5.42;100.00
43450;BME280;29041;42.266;23.110;2024-01-11T04:57:46;96649.69;;;-5.65;100.00
43450;BME280;29041;42.266;23.110;2024-01-11T05:00:33;96652.41;;;-5.38;100.00
43450;BME280;29041;42.266;23.110;2024-01-11T05:03:20;96652.13;;;-6.18;100.00
43450;BME280;29041;42.266;23.110;2024-01-11T05:06:08;96653.06;;;-5.84;100.00
43450;BME280;29041;42.266;23.110;2024-01-11T05:08:55;96635.31;;;-4.94;100.00
43450;BME280;29041;42.266;23.110;2024-01-11T05:11:43;96634.91;;;-4.90;100.00
43450;BME280;29041;42.266;23.110;2024-01-11T05:14:31;96641.47;;;-4.14;100.00
43450;BME280;29041;42.266;23.110;2024-01-11T05:17:18;96622.56;;;-4.43;97.97
43450;BME280;29041;42.266;23.110;2024-01-11T05:20:06;96637.53;;;-4.90;100.00
43450;BME280;29041;42.266;23.110;2024-01-11T05:22:54;96623.84;;;-4.99;100.00
43450;BME280;29041;42.266;23.110;2024-01-11T05:25:42;96635.13;;;-4.72;100.00
43450;BME280;29041;42.266;23.110;2024-01-11T05:28:31;96638.53;;;-5.05;100.00
43450;BME280;29041;42.266;23.110;2024-01-11T05:31:18;96641.91;;;-5.45;100.00
43450;BME280;29041;42.266;23.110;2024-01-11T05:34:05;96649.13;;;-5.53;100.00
43450;BME280;29041;42.266;23.110;2024-01-11T05:36:52;96623.13;;;-5.75;100.00
43450;BME280;29041;42.266;23.110;2024-01-11T05:39:39;96643.28;;;-5.62;100.00
43450;BME280;29041;42.266;23.110;2024-01-11T05:42:26;96640.84;;;-5.64;100.00
43450;BME280;29041;42.266;23.110;2024-01-11T05:45:15;96638.66;;;-5.47;100.00
43450;BME280;29041;42.266;23.110;2024-01-11T05:48:03;96627.75;;;-5.70;100.00
43450;BME280;29041;42.266;23.110;2024-01-11T05:50:51;96640.94;;;-5.37;100.00
43450;BME280;29041;42.266;23.110;2024-01-11T05:53:39;96639.69;;;-5.41;100.00
43450;BME280;29041;42.266;23.110;2024-01-11T05:56:26;96632.38;;;-5.66;100.00
43450;BME280;29041;42.266;23.110;2024-01-11T05:59:13;96626.72;;;-5.69;100.00
43450;BME280;29041;42.266;23.110;2024-01-11T06:02:01;96607.19;;;-5.80;100.00
43450;BME280;29041;42.266;23.110;2024-01-11T06:04:49;96627.63;;;-5.49;100.00
43450;BME280;29041;42.266;23.110;2024-01-11T06:07:36;96601.97;;;-5.80;100.00
43450;BME280;29041;42.266;23.110;2024-01-11T06:10:23;96625.72;;;-5.75;100.00
43450;BME280;29041;42.266;23.110;2024-01-11T06:13:10;96613.88;;;-5.58;100.00
43450;BME280;29041;42.266;23.110;2024-01-11T06:15:57;96617.94;;;-5.55;100.00
43450;BME280;29041;42.266;23.110;2024-01-11T06:18:46;96623.34;;;-5.57;100.00
43450;BME280;29041;42.266;23.110;2024-01-11T06:21:33;96627.84;;;-5.37;100.00
43450;BME280;29041;42.266;23.110;2024-01-11T06:24:25;96606.66;;;-5.62;100.00
43450;BME280;29041;42.266;23.110;2024-01-11T06:27:13;96614.69;;;-5.70;100.00
43450;BME280;29041;42.266;23.110;2024-01-11T06:30:06;96628.19;;;-5.67;100.00
43450;BME280;29041;42.266;23.110;2024-01-11T06:32:53;96629.63;;;-5.51;100.00
43450;BME280;29041;42.266;23.110;2024-01-11T06:35:42;96642.94;;;-5.39;100.00
43450;BME280;29041;42.266;23.110;2024-01-11T06:38:29;96621.44;;;-5.01;98.41
43450;BME280;29041;42.266;23.110;2024-01-11T06:41:16;96627.25;;;-4.92;97.75
43450;BME280;29041;42.266;23.110;2024-01-11T06:44:09;96642.97;;;-5.05;98.66
43450;BME280;29041;42.266;23.110;2024-01-11T06:46:56;96644.38;;;-5.30;99.69
43450;BME280;29041;42.266;23.110;2024-01-11T06:49:43;96641.72;;;-5.36;100.00
43450;BME280;29041;42.266;23.110;2024-01-11T06:52:32;96636.09;;;-5.33;100.00
43450;BME280;29041;42.266;23.110;2024-01-11T06:55:19;96626.03;;;-5.23;100.00
43450;BME280;29041;42.266;23.110;2024-01-11T06:58:06;96632.50;;;-4.85;97.79
43450;BME280;29041;42.266;23.110;2024-01-11T07:00:54;96618.38;;;-4.57;96.64
43450;BME280;29041;42.266;23.110;2024-01-11T07:03:41;96616.78;;;-4.00;94.79
43450;BME280;29041;42.266;23.110;2024-01-11T07:06:28;96618.25;;;-3.58;91.47
43450;BME280;29041;42.266;23.110;2024-01-11T07:09:16;96613.97;;;-2.95;87.35
43450;BME280;29041;42.266;23.110;2024-01-11T07:12:05;96608.03;;;-2.21;85.46
43450;BME280;29041;42.266;23.110;2024-01-11T07:14:52;96608.22;;;-0.35;79.31
43450;BME280;29041;42.266;23.110;2024-01-11T07:17:39;96594.22;;;-0.71;75.57
43450;BME280;29041;42.266;23.110;2024-01-11T07:20:26;96611.44;;;-0.21;74.82
43450;BME280;29041;42.266;23.110;2024-01-11T07:23:13;96605.75;;;0.69;71.08
43450;BME280;29041;42.266;23.110;2024-01-11T07:26:02;96607.41;;;0.58;72.40
43450;BME280;29041;42.266;23.110;2024-01-11T07:28:49;96598.94;;;2.96;63.94
43450;BME280;29041;42.266;23.110;2024-01-11T07:31:36;96596.16;;;1.65;65.88
43450;BME280;29041;42.266;23.110;2024-01-11T07:34:24;96582.28;;;1.97;63.04
43450;BME280;29041;42.266;23.110;2024-01-11T07:37:11;96580.66;;;3.75;60.21
43450;BME280;29041;42.266;23.110;2024-01-11T07:39:58;96583.03;;;2.96;62.04
43450;BME280;29041;42.266;23.110;2024-01-11T07:42:46;96591.31;;;3.43;60.25
43450;BME280;29041;42.266;23.110;2024-01-11T07:45:33;96572.84;;;4.11;59.33
43450;BME280;29041;42.266;23.110;2024-01-11T07:48:21;96569.09;;;4.02;57.32
43450;BME280;29041;42.266;23.110;2024-01-11T07:51:08;96560.50;;;8.00;48.91
43450;BME280;29041;42.266;23.110;2024-01-11T07:53:55;96575.13;;;5.69;51.66
43450;BME280;29041;42.266;23.110;2024-01-11T07:56:42;96559.44;;;6.33;51.12
43450;BME280;29041;42.266;23.110;2024-01-11T07:59:33;96579.44;;;5.29;53.11
43450;BME280;29041;42.266;23.110;2024-01-11T08:02:21;96552.56;;;6.22;51.70
43450;BME280;29041;42.266;23.110;2024-01-11T08:05:09;96566.63;;;4.64;55.84
43450;BME280;29041;42.266;23.110;2024-01-11T08:07:56;96558.78;;;4.21;56.41
43450;BME280;29041;42.266;23.110;2024-01-11T08:10:47;96554.81;;;6.89;51.44
43450;BME280;29041;42.266;23.110;2024-01-11T08:13:36;96557.28;;;5.54;54.48
43450;BME280;29041;42.266;23.110;2024-01-11T08:16:24;96557.59;;;4.96;55.90
43450;BME280;29041;42.266;23.110;2024-01-11T08:19:12;96561.84;;;4.82;56.17
43450;BME280;29041;42.266;23.110;2024-01-11T08:22:00;96557.03;;;4.68;56.79
43450;BME280;29041;42.266;23.110;2024-01-11T08:24:48;96549.63;;;5.01;57.23
43450;BME280;29041;42.266;23.110;2024-01-11T08:27:35;96542.00;;;6.51;52.68
43450;BME280;29041;42.266;23.110;2024-01-11T08:30:22;96547.22;;;6.72;50.09
43450;BME280;29041;42.266;23.110;2024-01-11T08:33:11;96549.38;;;5.13;55.42
43450;BME280;29041;42.266;23.110;2024-01-11T08:35:59;96542.66;;;3.75;59.48
43450;BME280;29041;42.266;23.110;2024-01-11T08:38:49;96534.41;;;5.33;57.18
43450;BME280;29041;42.266;23.110;2024-01-11T08:41:47;96536.22;;;5.68;54.34
43450;BME280;29041;42.266;23.110;2024-01-11T08:44:34;96516.19;;;5.76;53.48
43450;BME280;29041;42.266;23.110;2024-01-11T08:47:21;96530.31;;;6.47;53.83
43450;BME280;29041;42.266;23.110;2024-01-11T08:50:12;96523.22;;;6.27;52.04
43450;BME280;29041;42.266;23.110;2024-01-11T08:52:59;96529.19;;;2.68;63.01
43450;BME280;29041;42.266;23.110;2024-01-11T08:55:46;96522.81;;;2.10;65.90
43450;BME280;29041;42.266;23.110;2024-01-11T08:58:34;96532.63;;;1.08;69.25
43450;BME280;29041;42.266;23.110;2024-01-11T09:01:22;96516.19;;;1.85;70.06
43450;BME280;29041;42.266;23.110;2024-01-11T09:04:10;96529.59;;;1.17;72.06
43450;BME280;29041;42.266;23.110;2024-01-11T09:07:00;96514.22;;;2.52;66.68
43450;BME280;29041;42.266;23.110;2024-01-11T09:09:47;96515.63;;;1.83;70.14
43450;BME280;29041;42.266;23.110;2024-01-11T09:12:34;96517.94;;;1.57;70.14
43450;BME280;29041;42.266;23.110;2024-01-11T09:15:21;96518.03;;;1.23;72.28
43450;BME280;29041;42.266;23.110;2024-01-11T09:18:09;96508.97;;;1.80;70.44
43450;BME280;29041;42.266;23.110;2024-01-11T09:20:56;96507.91;;;2.03;68.33
43450;BME280;29041;42.266;23.110;2024-01-11T09:23:44;96500.13;;;2.19;68.89
43450;BME280;29041;42.266;23.110;2024-01-11T09:26:31;96496.78;;;1.57;70.94
43450;BME280;29041;42.266;23.110;2024-01-11T09:29:18;96490.22;;;1.60;70.22
43450;BME280;29041;42.266;23.110;2024-01-11T09:32:11;96492.88;;;1.87;69.39
43450;BME280;29041;42.266;23.110;2024-01-11T09:34:59;96475.22;;;2.80;68.73
43450;BME280;29041;42.266;23.110;2024-01-11T09:37:46;96480.16;;;0.83;72.71
43450;BME280;29041;42.266;23.110;2024-01-11T09:40:34;96470.13;;;1.41;73.40
43450;BME280;29041;42.266;23.110;2024-01-11T09:43:21;96452.72;;;1.95;71.17
43450;BME280;29041;42.266;23.110;2024-01-11T09:46:10;96465.41;;;1.66;70.78
43450;BME280;29041;42.266;23.110;2024-01-11T09:48:58;96461.69;;;2.81;67.38
43450;BME280;29041;42.266;23.110;2024-01-11T09:51:47;96462.09;;;2.30;67.65
43450;BME280;29041;42.266;23.110;2024-01-11T09:54:35;96451.81;;;2.39;68.65
43450;BME280;29041;42.266;23.110;2024-01-11T09:57:28;96436.97;;;3.77;64.01
43450;BME280;29041;42.266;23.110;2024-01-11T10:00:17;96445.53;;;2.83;66.92
43450;BME280;29041;42.266;23.110;2024-01-11T10:03:05;96419.31;;;3.45;64.15
43450;BME280;29041;42.266;23.110;2024-01-11T10:05:55;96433.28;;;3.88;64.09
43450;BME280;29041;42.266;23.110;2024-01-11T10:08:44;96417.66;;;4.18;63.30
43450;BME280;29041;42.266;23.110;2024-01-11T10:11:31;96420.81;;;3.94;61.80
43450;BME280;29041;42.266;23.110;2024-01-11T10:14:21;96407.09;;;3.33;64.37
43450;BME280;29041;42.266;23.110;2024-01-11T10:17:09;96405.81;;;2.98;63.83
43450;BME280;29041;42.266;23.110;2024-01-11T10:19:56;96400.75;;;3.50;67.11
43450;BME280;29041;42.266;23.110;2024-01-11T10:22:46;96396.31;;;3.76;62.18
43450;BME280;29041;42.266;23.110;2024-01-11T10:25:33;96396.41;;;3.23;64.48
43450;BME280;29041;42.266;23.110;2024-01-11T10:28:20;96390.78;;;4.04;63.05
43450;BME280;29041;42.266;23.110;2024-01-11T10:31:09;96376.41;;;5.58;59.02
43450;BME280;29041;42.266;23.110;2024-01-11T10:33:57;96362.22;;;5.73;57.18
43450;BME280;29041;42.266;23.110;2024-01-11T10:36:44;96371.78;;;5.24;56.85
43450;BME280;29041;42.266;23.110;2024-01-11T10:39:33;96352.97;;;6.10;54.44
43450;BME280;29041;42.266;23.110;2024-01-11T10:42:24;96350.78;;;5.12;59.99
43450;BME280;29041;42.266;23.110;2024-01-11T10:45:15;96346.59;;;4.90;59.55
43450;BME280;29041;42.266;23.110;2024-01-11T10:48:07;96335.19;;;4.85;61.16
43450;BME280;29041;42.266;23.110;2024-01-11T10:50:56;96326.50;;;4.12;60.99
43450;BME280;29041;42.266;23.110;2024-01-11T10:53:45;96325.97;;;4.31;62.88
43450;BME280;29041;42.266;23.110;2024-01-11T10:56:33;96324.34;;;4.50;62.32
43450;BME280;29041;42.266;23.110;2024-01-11T10:59:21;96319.78;;;5.37;60.19
43450;BME280;29041;42.266;23.110;2024-01-11T11:02:12;96306.41;;;4.92;62.08
43450;BME280;29041;42.266;23.110;2024-01-11T11:05:04;96301.50;;;4.44;63.10
43450;BME280;29041;42.266;23.110;2024-01-11T11:07:53;96295.59;;;5.78;60.37
43450;BME280;29041;42.266;23.110;2024-01-11T11:10:41;96286.88;;;5.67;59.29
43450;BME280;29041;42.266;23.110;2024-01-11T11:13:29;96274.91;;;5.15;61.25
43450;BME280;29041;42.266;23.110;2024-01-11T11:16:17;96280.13;;;4.80;63.49
43450;BME280;29041;42.266;23.110;2024-01-11T11:19:06;96275.31;;;4.87;62.43
43450;BME280;29041;42.266;23.110;2024-01-11T11:21:55;96265.31;;;5.19;61.79
43450;BME280;29041;42.266;23.110;2024-01-11T11:24:43;96260.25;;;5.17;61.90
43450;BME280;29041;42.266;23.110;2024-01-11T11:27:30;96252.03;;;5.93;59.98
43450;BME280;29041;42.266;23.110;2024-01-11T11:30:19;96248.63;;;5.87;59.98
43450;BME280;29041;42.266;23.110;2024-01-11T11:33:10;96238.13;;;6.01;58.50
43450;BME280;29041;42.266;23.110;2024-01-11T11:35:58;96235.97;;;6.81;57.38
43450;BME280;29041;42.266;23.110;2024-01-11T11:38:46;96220.09;;;5.88;58.22
43450;BME280;29041;42.266;23.110;2024-01-11T11:41:35;96220.22;;;6.37;57.49
43450;BME280;29041;42.266;23.110;2024-01-11T11:44:24;96194.19;;;6.23;56.47
43450;BME280;29041;42.266;23.110;2024-01-11T11:47:21;96182.69;;;5.69;57.37
43450;BME280;29041;42.266;23.110;2024-01-11T11:50:10;96198.13;;;6.07;57.02
43450;BME280;29041;42.266;23.110;2024-01-11T11:52:59;96180.75;;;6.58;55.21
43450;BME280;29041;42.266;23.110;2024-01-11T11:55:47;96183.41;;;6.09;57.24
43450;BME280;29041;42.266;23.110;2024-01-11T11:58:36;96170.69;;;6.49;54.81
43450;BME280;29041;42.266;23.110;2024-01-11T12:01:24;96170.59;;;6.11;57.07
43450;BME280;29041;42.266;23.110;2024-01-11T12:04:13;96162.25;;;6.42;56.36
43450;BME280;29041;42.266;23.110;2024-01-11T12:07:00;96158.69;;;6.71;55.20
43450;BME280;29041;42.266;23.110;2024-01-11T12:09:49;96153.63;;;6.50;57.58
43450;BME280;29041;42.266;23.110;2024-01-11T12:12:38;96144.22;;;6.77;55.27
43450;BME280;29041;42.266;23.110;2024-01-11T12:15:26;96142.19;;;6.69;54.71
43450;BME280;29041;42.266;23.110;2024-01-11T12:18:14;96139.81;;;6.87;55.28
43450;BME280;29041;42.266;23.110;2024-01-11T12:21:01;96127.34;;;7.53;53.69
43450;BME280;29041;42.266;23.110;2024-01-11T12:23:48;96123.53;;;6.69;56.71
43450;BME280;29041;42.266;23.110;2024-01-11T12:26:35;96120.28;;;7.43;53.66
43450;BME280;29041;42.266;23.110;2024-01-11T12:29:24;96123.53;;;7.73;52.10
43450;BME280;29041;42.266;23.110;2024-01-11T12:32:11;96117.25;;;7.31;53.17
43450;BME280;29041;42.266;23.110;2024-01-11T12:35:01;96117.69;;;7.38;53.18
43450;BME280;29041;42.266;23.110;2024-01-11T12:37:54;96122.94;;;6.91;54.62
43450;BME280;29041;42.266;23.110;2024-01-11T12:40:41;96115.78;;;7.06;55.42
43450;BME280;29041;42.266;23.110;2024-01-11T12:43:29;96126.34;;;6.97;56.14
43450;BME280;29041;42.266;23.110;2024-01-11T12:46:18;96114.56;;;7.50;54.56
43450;BME280;29041;42.266;23.110;2024-01-11T12:49:05;96112.75;;;7.12;55.06
43450;BME280;29041;42.266;23.110;2024-01-11T12:51:52;96106.38;;;7.27;55.50
43450;BME280;29041;42.266;23.110;2024-01-11T12:54:40;96118.19;;;7.40;53.93
43450;BME280;29041;42.266;23.110;2024-01-11T12:57:27;96102.97;;;7.41;54.60
43450;BME280;29041;42.266;23.110;2024-01-11T13:00:15;96090.84;;;6.77;56.04
43450;BME280;29041;42.266;23.110;2024-01-11T13:03:04;96090.13;;;7.24;55.43
43450;BME280;29041;42.266;23.110;2024-01-11T13:05:52;96095.28;;;7.01;56.12
43450;BME280;29041;42.266;23.110;2024-01-11T13:08:39;96093.75;;;6.62;56.50
43450;BME280;29041;42.266;23.110;2024-01-11T13:11:27;96089.91;;;6.68;56.83
43450;BME280;29041;42.266;23.110;2024-01-11T13:14:14;96082.63;;;6.55;57.05
43450;BME280;29041;42.266;23.110;2024-01-11T13:17:04;96070.44;;;6.67;56.30
43450;BME280;29041;42.266;23.110;2024-01-11T13:19:54;96074.75;;;6.44;57.75
43450;BME280;29041;42.266;23.110;2024-01-11T13:22:41;96065.75;;;6.59;57.29
43450;BME280;29041;42.266;23.110;2024-01-11T13:25:28;96070.06;;;6.36;56.89
43450;BME280;29041;42.266;23.110;2024-01-11T13:28:16;96057.88;;;6.87;56.31
43450;BME280;29041;42.266;23.110;2024-01-11T13:31:04;96053.34;;;7.21;56.11
43450;BME280;29041;42.266;23.110;2024-01-11T13:33:51;96052.19;;;6.17;58.61
43450;BME280;29041;42.266;23.110;2024-01-11T13:36:42;96044.22;;;7.41;55.67
43450;BME280;29041;42.266;23.110;2024-01-11T13:39:29;96044.06;;;7.32;55.88
43450;BME280;29041;42.266;23.110;2024-01-11T13:42:16;96047.66;;;6.56;57.70
43450;BME280;29041;42.266;23.110;2024-01-11T13:45:03;96050.75;;;6.44;58.58
43450;BME280;29041;42.266;23.110;2024-01-11T13:47:52;96035.94;;;6.90;57.09
43450;BME280;29041;42.266;23.110;2024-01-11T13:50:40;96030.28;;;6.59;57.70
43450;BME280;29041;42.266;23.110;2024-01-11T13:53:29;96031.84;;;5.97;59.37
43450;BME280;29041;42.266;23.110;2024-01-11T13:56:16;96033.34;;;6.09;60.45
43450;BME280;29041;42.266;23.110;2024-01-11T13:59:03;96026.34;;;5.88;61.01
43450;BME280;29041;42.266;23.110;2024-01-11T14:01:51;96025.28;;;5.41;62.11
43450;BME280;29041;42.266;23.110;2024-01-11T14:04:38;96011.50;;;5.58;61.56
43450;BME280;29041;42.266;23.110;2024-01-11T14:07:25;96013.88;;;5.35;62.41
43450;BME280;29041;42.266;23.110;2024-01-11T14:10:14;96009.75;;;5.24;62.88
43450;BME280;29041;42.266;23.110;2024-01-11T14:13:02;96006.44;;;4.73;64.94
43450;BME280;29041;42.266;23.110;2024-01-11T14:15:49;95993.94;;;4.74;65.08
43450;BME280;29041;42.266;23.110;2024-01-11T14:18:36;95991.00;;;4.75;65.46
43450;BME280;29041;42.266;23.110;2024-01-11T14:21:23;95973.53;;;4.93;64.18
43450;BME280;29041;42.266;23.110;2024-01-11T14:24:10;95974.28;;;5.29;63.48
43450;BME280;29041;42.266;23.110;2024-01-11T14:26:59;95979.34;;;5.01;63.90
43450;BME280;29041;42.266;23.110;2024-01-11T14:29:47;95969.44;;;4.77;65.13
43450;BME280;29041;42.266;23.110;2024-01-11T14:32:34;95979.63;;;4.99;64.56
43450;BME280;29041;42.266;23.110;2024-01-11T14:35:22;95975.31;;;5.03;65.64
43450;BME280;29041;42.266;23.110;2024-01-11T14:38:09;95971.13;;;4.97;65.36